sensor_id;sensor_type;location;lat;lon;timestamp;P1;durP1;ratioP1;P2;durP2;ratioP2
23802;SDS011;12082;51.786;6.018;2023-02-23T00:01:36;137.17;;;60.60;;
23802;SDS011;12082;51.786;6.018;2023-02-23T00:04:03;117.30;;;57.87;;
23802;SDS011;12082;51.786;6.018;2023-02-23T00:06:29;121.67;;;60.77;;
23802;SDS011;12082;51.786;6.018;2023-02-23T00:08:56;112.70;;;57.80;;
23802;SDS011;12082;51.786;6.018;2023-02-23T00:11:25;115.20;;;58.30;;
23802;SDS011;12082;51.786;6.018;2023-02-23T00:13:51;120.50;;;57.47;;
23802;SDS011;12082;51.786;6.018;2023-02-23T00:16:18;114.97;;;55.27;;
23802;SDS011;12082;51.786;6.018;2023-02-23T00:18:46;109.87;;;55.83;;
23802;SDS011;12082;51.786;6.018;2023-02-23T00:21:15;114.73;;;55.93;;
23802;SDS011;12082;51.786;6.018;2023-02-23T00:23:43;110.23;;;57.30;;
23802;SDS011;12082;51.786;6.018;2023-02-23T00:26:12;108.80;;;55.33;;
23802;SDS011;12082;51.786;6.018;2023-02-23T00:28:38;106.33;;;52.23;;
23802;SDS011;12082;51.786;6.018;2023-02-23T00:31:06;104.37;;;51.80;;
23802;SDS011;12082;51.786;6.018;2023-02-23T00:33:32;109.83;;;53.30;;
23802;SDS011;12082;51.786;6.018;2023-02-23T00:36:02;109.70;;;55.17;;
23802;SDS011;12082;51.786;6.018;2023-02-23T00:38:29;104.23;;;52.37;;
23802;SDS011;12082;51.786;6.018;2023-02-23T00:41:01;108.50;;;54.43;;
23802;SDS011;12082;51.786;6.018;2023-02-23T00:43:31;93.33;;;49.70;;
23802;SDS011;12082;51.786;6.018;2023-02-23T00:45:57;95.37;;;50.23;;
23802;SDS011;12082;51.786;6.018;2023-02-23T00:48:23;109.13;;;55.30;;
23802;SDS011;12082;51.786;6.018;2023-02-23T00:50:56;103.27;;;53.03;;
23802;SDS011;12082;51.786;6.018;2023-02-23T00:53:22;102.17;;;52.63;;
23802;SDS011;12082;51.786;6.018;2023-02-23T00:55:51;95.40;;;49.17;;
23802;SDS011;12082;51.786;6.018;2023-02-23T00:58:17;102.67;;;51.27;;
23802;SDS011;12082;51.786;6.018;2023-02-23T01:00:43;95.57;;;54.07;;
23802;SDS011;12082;51.786;6.018;2023-02-23T01:03:09;106.53;;;53.50;;
23802;SDS011;12082;51.786;6.018;2023-02-23T01:05:35;97.07;;;51.60;;
23802;SDS011;12082;51.786;6.018;2023-02-23T01:08:01;110.23;;;55.27;;
23802;SDS011;12082;51.786;6.018;2023-02-23T01:10:28;96.03;;;50.97;;
23802;SDS011;12082;51.786;6.018;2023-02-23T01:12:54;102.97;;;51.40;;
23802;SDS011;12082;51.786;6.018;2023-02-23T01:15:20;89.17;;;48.20;;
23802;SDS011;12082;51.786;6.018;2023-02-23T01:17:46;123.33;;;56.83;;
23802;SDS011;12082;51.786;6.018;2023-02-23T01:20:13;107.07;;;52.87;;
23802;SDS011;12082;51.786;6.018;2023-02-23T01:22:41;107.10;;;53.53;;
23802;SDS011;12082;51.786;6.018;2023-02-23T01:25:08;105.37;;;55.37;;
23802;SDS011;12082;51.786;6.018;2023-02-23T01:27:36;102.33;;;53.80;;
23802;SDS011;12082;51.786;6.018;2023-02-23T01:30:02;96.67;;;49.80;;
23802;SDS011;12082;51.786;6.018;2023-02-23T01:32:28;101.07;;;50.57;;
23802;SDS011;12082;51.786;6.018;2023-02-23T01:34:54;117.47;;;57.53;;
23802;SDS011;12082;51.786;6.018;2023-02-23T01:37:20;107.00;;;52.43;;
23802;SDS011;12082;51.786;6.018;2023-02-23T01:39:46;112.37;;;54.10;;
23802;SDS011;12082;51.786;6.018;2023-02-23T01:42:12;112.40;;;54.10;;
23802;SDS011;12082;51.786;6.018;2023-02-23T01:47:04;110.80;;;53.63;;
23802;SDS011;12082;51.786;6.018;2023-02-23T01:49:30;115.10;;;54.07;;
23802;SDS011;12082;51.786;6.018;2023-02-23T01:52:02;122.90;;;56.87;;
23802;SDS011;12082;51.786;6.018;2023-02-23T01:54:31;117.60;;;52.70;;
23802;SDS011;12082;51.786;6.018;2023-02-23T01:57:00;115.67;;;53.63;;
23802;SDS011;12082;51.786;6.018;2023-02-23T02:01:59;108.13;;;53.10;;
23802;SDS011;12082;51.786;6.018;2023-02-23T02:04:25;120.70;;;56.07;;
23802;SDS011;12082;51.786;6.018;2023-02-23T02:06:51;112.37;;;54.40;;
23802;SDS011;12082;51.786;6.018;2023-02-23T02:09:19;112.07;;;53.70;;
23802;SDS011;12082;51.786;6.018;2023-02-23T02:11:49;117.60;;;53.67;;
23802;SDS011;12082;51.786;6.018;2023-02-23T02:14:19;116.83;;;53.90;;
23802;SDS011;12082;51.786;6.018;2023-02-23T02:24:29;103.67;;;52.83;;
23802;SDS011;12082;51.786;6.018;2023-02-23T02:32:56;109.90;;;51.10;;
23802;SDS011;12082;51.786;6.018;2023-02-23T02:38:16;107.13;;;50.70;;
23802;SDS011;12082;51.786;6.018;2023-02-23T02:40:51;109.60;;;50.97;;
23802;SDS011;12082;51.786;6.018;2023-02-23T02:43:22;102.67;;;50.17;;
23802;SDS011;12082;51.786;6.018;2023-02-23T02:46:01;108.37;;;51.87;;
23802;SDS011;12082;51.786;6.018;2023-02-23T02:48:36;99.73;;;51.57;;
23802;SDS011;12082;51.786;6.018;2023-02-23T02:56:06;107.80;;;50.70;;
23802;SDS011;12082;51.786;6.018;2023-02-23T02:58:32;110.63;;;51.53;;
23802;SDS011;12082;51.786;6.018;2023-02-23T03:01:11;112.63;;;51.27;;
23802;SDS011;12082;51.786;6.018;2023-02-23T03:03:56;102.37;;;50.43;;
23802;SDS011;12082;51.786;6.018;2023-02-23T03:07:01;105.33;;;50.20;;
23802;SDS011;12082;51.786;6.018;2023-02-23T03:09:53;98.73;;;49.53;;
23802;SDS011;12082;51.786;6.018;2023-02-23T03:12:45;107.17;;;48.53;;
23802;SDS011;12082;51.786;6.018;2023-02-23T03:15:54;108.63;;;50.67;;
23802;SDS011;12082;51.786;6.018;2023-02-23T03:21:54;104.33;;;48.00;;
23802;SDS011;12082;51.786;6.018;2023-02-23T03:27:35;103.07;;;50.87;;
23802;SDS011;12082;51.786;6.018;2023-02-23T03:30:29;105.60;;;50.43;;
23802;SDS011;12082;51.786;6.018;2023-02-23T03:33:25;108.73;;;51.57;;
23802;SDS011;12082;51.786;6.018;2023-02-23T03:36:14;100.93;;;51.87;;
23802;SDS011;12082;51.786;6.018;2023-02-23T03:41:46;115.10;;;51.60;;
23802;SDS011;12082;51.786;6.018;2023-02-23T03:44:33;112.23;;;51.60;;
23802;SDS011;12082;51.786;6.018;2023-02-23T03:47:21;112.10;;;51.00;;
23802;SDS011;12082;51.786;6.018;2023-02-23T03:50:08;112.07;;;50.77;;
23802;SDS011;12082;51.786;6.018;2023-02-23T03:52:55;105.37;;;49.87;;
23802;SDS011;12082;51.786;6.018;2023-02-23T03:55:42;106.50;;;49.37;;
23802;SDS011;12082;51.786;6.018;2023-02-23T03:58:38;123.13;;;54.07;;
23802;SDS011;12082;51.786;6.018;2023-02-23T04:01:24;110.00;;;51.57;;
23802;SDS011;12082;51.786;6.018;2023-02-23T04:04:10;116.63;;;51.70;;
23802;SDS011;12082;51.786;6.018;2023-02-23T04:06:59;122.10;;;52.60;;
23802;SDS011;12082;51.786;6.018;2023-02-23T04:09:45;99.43;;;47.87;;
23802;SDS011;12082;51.786;6.018;2023-02-23T04:15:18;127.13;;;53.07;;
23802;SDS011;12082;51.786;6.018;2023-02-23T04:17:45;123.00;;;52.33;;
23802;SDS011;12082;51.786;6.018;2023-02-23T04:20:11;107.13;;;50.07;;
23802;SDS011;12082;51.786;6.018;2023-02-23T04:22:38;115.77;;;51.30;;
23802;SDS011;12082;51.786;6.018;2023-02-23T04:25:04;110.37;;;48.00;;
23802;SDS011;12082;51.786;6.018;2023-02-23T04:27:32;88.27;;;46.43;;
23802;SDS011;12082;51.786;6.018;2023-02-23T04:29:58;109.33;;;50.43;;
23802;SDS011;12082;51.786;6.018;2023-02-23T04:32:25;107.53;;;51.40;;
23802;SDS011;12082;51.786;6.018;2023-02-23T04:34:51;101.30;;;48.23;;
23802;SDS011;12082;51.786;6.018;2023-02-23T04:37:17;106.77;;;49.23;;
23802;SDS011;12082;51.786;6.018;2023-02-23T04:39:43;100.60;;;47.30;;
23802;SDS011;12082;51.786;6.018;2023-02-23T04:42:13;116.50;;;51.47;;
23802;SDS011;12082;51.786;6.018;2023-02-23T04:44:39;99.53;;;45.67;;
23802;SDS011;12082;51.786;6.018;2023-02-23T04:47:05;99.73;;;48.07;;
23802;SDS011;12082;51.786;6.018;2023-02-23T04:49:31;111.93;;;49.90;;
23802;SDS011;12082;51.786;6.018;2023-02-23T04:51:57;102.23;;;48.30;;
23802;SDS011;12082;51.786;6.018;2023-02-23T04:54:23;99.83;;;47.63;;
23802;SDS011;12082;51.786;6.018;2023-02-23T04:56:49;98.93;;;48.00;;
23802;SDS011;12082;51.786;6.018;2023-02-23T04:59:15;98.67;;;47.90;;
23802;SDS011;12082;51.786;6.018;2023-02-23T05:01:42;104.63;;;49.17;;
23802;SDS011;12082;51.786;6.018;2023-02-23T05:04:08;101.00;;;49.33;;
23802;SDS011;12082;51.786;6.018;2023-02-23T05:06:34;96.33;;;49.00;;
23802;SDS011;12082;51.786;6.018;2023-02-23T05:09:00;103.57;;;51.63;;
23802;SDS011;12082;51.786;6.018;2023-02-23T05:11:27;121.87;;;53.33;;
23802;SDS011;12082;51.786;6.018;2023-02-23T05:13:53;100.67;;;50.13;;
23802;SDS011;12082;51.786;6.018;2023-02-23T05:16:19;123.00;;;52.03;;
23802;SDS011;12082;51.786;6.018;2023-02-23T05:18:45;108.30;;;50.30;;
23802;SDS011;12082;51.786;6.018;2023-02-23T05:21:11;110.80;;;53.27;;
23802;SDS011;12082;51.786;6.018;2023-02-23T05:23:37;106.80;;;51.63;;
23802;SDS011;12082;51.786;6.018;2023-02-23T05:26:04;113.67;;;54.17;;
23802;SDS011;12082;51.786;6.018;2023-02-23T05:28:31;128.57;;;55.80;;
23802;SDS011;12082;51.786;6.018;2023-02-23T05:30:57;121.77;;;53.60;;
23802;SDS011;12082;51.786;6.018;2023-02-23T05:33:23;123.87;;;55.90;;
23802;SDS011;12082;51.786;6.018;2023-02-23T05:35:49;114.20;;;53.77;;
23802;SDS011;12082;51.786;6.018;2023-02-23T05:38:15;123.27;;;56.33;;
23802;SDS011;12082;51.786;6.018;2023-02-23T05:40:41;134.60;;;57.37;;
23802;SDS011;12082;51.786;6.018;2023-02-23T05:43:07;133.87;;;57.60;;
23802;SDS011;12082;51.786;6.018;2023-02-23T05:45:33;128.40;;;55.97;;
23802;SDS011;12082;51.786;6.018;2023-02-23T05:47:59;127.10;;;57.30;;
23802;SDS011;12082;51.786;6.018;2023-02-23T05:50:25;135.13;;;57.23;;
23802;SDS011;12082;51.786;6.018;2023-02-23T05:52:51;132.03;;;59.30;;
23802;SDS011;12082;51.786;6.018;2023-02-23T05:55:17;128.37;;;55.30;;
23802;SDS011;12082;51.786;6.018;2023-02-23T05:57:43;140.03;;;56.67;;
23802;SDS011;12082;51.786;6.018;2023-02-23T06:00:12;129.57;;;55.07;;
23802;SDS011;12082;51.786;6.018;2023-02-23T06:02:38;133.20;;;56.43;;
23802;SDS011;12082;51.786;6.018;2023-02-23T06:05:05;140.53;;;55.43;;
23802;SDS011;12082;51.786;6.018;2023-02-23T06:07:32;137.97;;;57.67;;
23802;SDS011;12082;51.786;6.018;2023-02-23T06:09:58;135.30;;;55.80;;
23802;SDS011;12082;51.786;6.018;2023-02-23T06:12:24;138.00;;;54.33;;
23802;SDS011;12082;51.786;6.018;2023-02-23T06:14:50;141.83;;;57.83;;
23802;SDS011;12082;51.786;6.018;2023-02-23T06:17:16;144.70;;;57.77;;
23802;SDS011;12082;51.786;6.018;2023-02-23T06:19:42;143.53;;;57.13;;
23802;SDS011;12082;51.786;6.018;2023-02-23T06:22:08;141.50;;;57.10;;
23802;SDS011;12082;51.786;6.018;2023-02-23T06:24:34;139.47;;;56.80;;
23802;SDS011;12082;51.786;6.018;2023-02-23T06:27:00;126.07;;;53.33;;
23802;SDS011;12082;51.786;6.018;2023-02-23T06:29:26;146.97;;;57.37;;
23802;SDS011;12082;51.786;6.018;2023-02-23T06:31:53;145.13;;;56.37;;
23802;SDS011;12082;51.786;6.018;2023-02-23T06:34:21;151.60;;;55.17;;
23802;SDS011;12082;51.786;6.018;2023-02-23T06:36:49;160.17;;;56.37;;
23802;SDS011;12082;51.786;6.018;2023-02-23T06:39:15;138.83;;;57.50;;
23802;SDS011;12082;51.786;6.018;2023-02-23T06:41:40;142.00;;;56.07;;
23802;SDS011;12082;51.786;6.018;2023-02-23T06:44:07;144.53;;;55.23;;
23802;SDS011;12082;51.786;6.018;2023-02-23T06:46:34;134.80;;;56.47;;
23802;SDS011;12082;51.786;6.018;2023-02-23T06:49:02;146.87;;;56.37;;
23802;SDS011;12082;51.786;6.018;2023-02-23T06:51:29;151.07;;;57.97;;
23802;SDS011;12082;51.786;6.018;2023-02-23T06:53:57;135.53;;;55.60;;
23802;SDS011;12082;51.786;6.018;2023-02-23T06:56:23;140.87;;;55.23;;
23802;SDS011;12082;51.786;6.018;2023-02-23T06:58:49;152.13;;;59.60;;
23802;SDS011;12082;51.786;6.018;2023-02-23T07:01:15;141.17;;;57.53;;
23802;SDS011;12082;51.786;6.018;2023-02-23T07:03:43;145.37;;;56.60;;
23802;SDS011;12082;51.786;6.018;2023-02-23T07:06:09;150.27;;;59.63;;
23802;SDS011;12082;51.786;6.018;2023-02-23T07:08:35;160.00;;;60.07;;
23802;SDS011;12082;51.786;6.018;2023-02-23T07:11:08;145.67;;;56.00;;
23802;SDS011;12082;51.786;6.018;2023-02-23T07:13:37;166.83;;;58.77;;
23802;SDS011;12082;51.786;6.018;2023-02-23T07:16:04;137.37;;;57.53;;
23802;SDS011;12082;51.786;6.018;2023-02-23T07:18:31;138.30;;;54.77;;
23802;SDS011;12082;51.786;6.018;2023-02-23T07:20:56;150.60;;;59.07;;
23802;SDS011;12082;51.786;6.018;2023-02-23T07:23:24;168.47;;;59.03;;
23802;SDS011;12082;51.786;6.018;2023-02-23T07:25:51;170.10;;;60.27;;
23802;SDS011;12082;51.786;6.018;2023-02-23T07:28:17;165.00;;;56.97;;
23802;SDS011;12082;51.786;6.018;2023-02-23T07:30:45;156.03;;;59.13;;
23802;SDS011;12082;51.786;6.018;2023-02-23T07:33:13;174.43;;;60.17;;
23802;SDS011;12082;51.786;6.018;2023-02-23T07:35:39;158.53;;;58.30;;
23802;SDS011;12082;51.786;6.018;2023-02-23T07:38:06;173.20;;;57.10;;
23802;SDS011;12082;51.786;6.018;2023-02-23T07:40:31;152.90;;;58.17;;
23802;SDS011;12082;51.786;6.018;2023-02-23T07:42:57;163.73;;;57.93;;
23802;SDS011;12082;51.786;6.018;2023-02-23T07:45:23;164.70;;;55.73;;
23802;SDS011;12082;51.786;6.018;2023-02-23T07:47:49;152.83;;;56.23;;
23802;SDS011;12082;51.786;6.018;2023-02-23T07:50:14;138.67;;;53.33;;
23802;SDS011;12082;51.786;6.018;2023-02-23T07:52:41;142.77;;;52.50;;
23802;SDS011;12082;51.786;6.018;2023-02-23T07:55:07;141.30;;;51.90;;
23802;SDS011;12082;51.786;6.018;2023-02-23T07:57:34;144.30;;;53.57;;
23802;SDS011;12082;51.786;6.018;2023-02-23T07:59:59;138.53;;;50.27;;
23802;SDS011;12082;51.786;6.018;2023-02-23T08:02:25;152.40;;;53.87;;
23802;SDS011;12082;51.786;6.018;2023-02-23T08:04:56;154.20;;;53.63;;
23802;SDS011;12082;51.786;6.018;2023-02-23T08:07:21;133.10;;;49.73;;
23802;SDS011;12082;51.786;6.018;2023-02-23T08:09:49;139.40;;;49.57;;
23802;SDS011;12082;51.786;6.018;2023-02-23T08:12:16;127.73;;;48.87;;
23802;SDS011;12082;51.786;6.018;2023-02-23T08:14:42;116.57;;;44.97;;
23802;SDS011;12082;51.786;6.018;2023-02-23T08:17:07;128.53;;;48.67;;
23802;SDS011;12082;51.786;6.018;2023-02-23T08:19:33;134.60;;;48.17;;
23802;SDS011;12082;51.786;6.018;2023-02-23T08:21:59;129.03;;;47.93;;
23802;SDS011;12082;51.786;6.018;2023-02-23T08:24:25;110.77;;;43.73;;
23802;SDS011;12082;51.786;6.018;2023-02-23T08:26:53;131.37;;;45.90;;
23802;SDS011;12082;51.786;6.018;2023-02-23T08:29:18;119.93;;;45.57;;
23802;SDS011;12082;51.786;6.018;2023-02-23T08:31:45;122.07;;;49.50;;
23802;SDS011;12082;51.786;6.018;2023-02-23T08:34:11;143.07;;;48.53;;
23802;SDS011;12082;51.786;6.018;2023-02-23T08:36:37;142.80;;;50.00;;
23802;SDS011;12082;51.786;6.018;2023-02-23T08:39:04;141.90;;;50.83;;
23802;SDS011;12082;51.786;6.018;2023-02-23T08:41:31;135.13;;;49.17;;
23802;SDS011;12082;51.786;6.018;2023-02-23T08:43:57;137.73;;;53.20;;
23802;SDS011;12082;51.786;6.018;2023-02-23T08:46:23;132.67;;;52.97;;
23802;SDS011;12082;51.786;6.018;2023-02-23T08:48:49;164.67;;;56.17;;
23802;SDS011;12082;51.786;6.018;2023-02-23T08:51:14;157.13;;;52.27;;
23802;SDS011;12082;51.786;6.018;2023-02-23T08:53:40;152.10;;;53.53;;
23802;SDS011;12082;51.786;6.018;2023-02-23T08:56:06;138.87;;;52.73;;
23802;SDS011;12082;51.786;6.018;2023-02-23T08:58:33;148.30;;;53.03;;
23802;SDS011;12082;51.786;6.018;2023-02-23T09:00:59;160.40;;;53.67;;
23802;SDS011;12082;51.786;6.018;2023-02-23T09:03:26;152.40;;;53.17;;
23802;SDS011;12082;51.786;6.018;2023-02-23T09:05:55;164.17;;;55.27;;
23802;SDS011;12082;51.786;6.018;2023-02-23T09:08:23;149.50;;;52.73;;
23802;SDS011;12082;51.786;6.018;2023-02-23T09:10:50;153.43;;;52.87;;
23802;SDS011;12082;51.786;6.018;2023-02-23T09:13:17;160.00;;;54.33;;
23802;SDS011;12082;51.786;6.018;2023-02-23T09:15:43;145.80;;;52.27;;
23802;SDS011;12082;51.786;6.018;2023-02-23T09:18:10;145.30;;;52.47;;
23802;SDS011;12082;51.786;6.018;2023-02-23T09:20:41;151.27;;;51.70;;
23802;SDS011;12082;51.786;6.018;2023-02-23T09:23:07;140.17;;;49.87;;
23802;SDS011;12082;51.786;6.018;2023-02-23T09:25:33;147.70;;;52.00;;
23802;SDS011;12082;51.786;6.018;2023-02-23T09:28:08;155.70;;;54.27;;
23802;SDS011;12082;51.786;6.018;2023-02-23T09:30:38;161.33;;;53.47;;
23802;SDS011;12082;51.786;6.018;2023-02-23T09:33:05;158.13;;;53.03;;
23802;SDS011;12082;51.786;6.018;2023-02-23T09:35:31;165.33;;;54.37;;
23802;SDS011;12082;51.786;6.018;2023-02-23T09:37:58;148.23;;;51.60;;
23802;SDS011;12082;51.786;6.018;2023-02-23T09:40:25;166.50;;;52.93;;
23802;SDS011;12082;51.786;6.018;2023-02-23T09:45:51;155.30;;;51.90;;
23802;SDS011;12082;51.786;6.018;2023-02-23T09:48:20;164.87;;;53.47;;
23802;SDS011;12082;51.786;6.018;2023-02-23T09:51:06;146.90;;;51.60;;
23802;SDS011;12082;51.786;6.018;2023-02-23T09:53:50;152.83;;;52.97;;
23802;SDS011;12082;51.786;6.018;2023-02-23T09:56:37;163.20;;;60.07;;
23802;SDS011;12082;51.786;6.018;2023-02-23T09:59:10;159.90;;;53.03;;
23802;SDS011;12082;51.786;6.018;2023-02-23T10:07:14;165.33;;;53.13;;
23802;SDS011;12082;51.786;6.018;2023-02-23T10:12:34;159.80;;;51.17;;
23802;SDS011;12082;51.786;6.018;2023-02-23T10:21:01;154.33;;;52.20;;
23802;SDS011;12082;51.786;6.018;2023-02-23T10:26:26;151.33;;;50.10;;
23802;SDS011;12082;51.786;6.018;2023-02-23T10:29:17;167.53;;;51.40;;
23802;SDS011;12082;51.786;6.018;2023-02-23T10:31:47;133.73;;;49.53;;
23802;SDS011;12082;51.786;6.018;2023-02-23T10:34:17;140.63;;;47.37;;
23802;SDS011;12082;51.786;6.018;2023-02-23T10:36:45;151.10;;;49.30;;
23802;SDS011;12082;51.786;6.018;2023-02-23T10:39:24;162.90;;;52.90;;
23802;SDS011;12082;51.786;6.018;2023-02-23T10:41:50;168.20;;;52.93;;
23802;SDS011;12082;51.786;6.018;2023-02-23T10:44:23;143.37;;;48.87;;
23802;SDS011;12082;51.786;6.018;2023-02-23T10:46:52;155.70;;;50.13;;
23802;SDS011;12082;51.786;6.018;2023-02-23T10:49:23;148.27;;;50.13;;
23802;SDS011;12082;51.786;6.018;2023-02-23T10:51:54;137.30;;;48.77;;
23802;SDS011;12082;51.786;6.018;2023-02-23T10:54:33;138.97;;;49.27;;
23802;SDS011;12082;51.786;6.018;2023-02-23T10:56:59;152.43;;;49.33;;
23802;SDS011;12082;51.786;6.018;2023-02-23T10:59:25;149.00;;;50.13;;
23802;SDS011;12082;51.786;6.018;2023-02-23T11:01:51;155.03;;;48.97;;
23802;SDS011;12082;51.786;6.018;2023-02-23T11:04:25;158.07;;;49.50;;
23802;SDS011;12082;51.786;6.018;2023-02-23T11:07:09;144.67;;;47.83;;
23802;SDS011;12082;51.786;6.018;2023-02-23T11:09:41;157.17;;;49.30;;
23802;SDS011;12082;51.786;6.018;2023-02-23T11:12:18;147.10;;;48.57;;
23802;SDS011;12082;51.786;6.018;2023-02-23T11:14:53;157.60;;;48.33;;
23802;SDS011;12082;51.786;6.018;2023-02-23T11:17:23;141.93;;;48.23;;
23802;SDS011;12082;51.786;6.018;2023-02-23T11:19:59;143.13;;;48.60;;
23802;SDS011;12082;51.786;6.018;2023-02-23T11:22:29;148.37;;;47.87;;
23802;SDS011;12082;51.786;6.018;2023-02-23T11:24:57;143.30;;;48.40;;
23802;SDS011;12082;51.786;6.018;2023-02-23T11:27:25;132.73;;;47.37;;
23802;SDS011;12082;51.786;6.018;2023-02-23T11:29:53;132.07;;;46.47;;
23802;SDS011;12082;51.786;6.018;2023-02-23T11:32:22;139.37;;;47.60;;
23802;SDS011;12082;51.786;6.018;2023-02-23T11:35:11;141.93;;;48.97;;
23802;SDS011;12082;51.786;6.018;2023-02-23T11:37:46;133.30;;;45.27;;
23802;SDS011;12082;51.786;6.018;2023-02-23T11:40:23;151.00;;;48.77;;
23802;SDS011;12082;51.786;6.018;2023-02-23T11:42:51;124.13;;;45.37;;
23802;SDS011;12082;51.786;6.018;2023-02-23T11:45:22;124.00;;;44.00;;
23802;SDS011;12082;51.786;6.018;2023-02-23T11:47:52;132.77;;;44.70;;
23802;SDS011;12082;51.786;6.018;2023-02-23T11:53:10;127.70;;;45.23;;
23802;SDS011;12082;51.786;6.018;2023-02-23T11:55:39;136.77;;;47.27;;
23802;SDS011;12082;51.786;6.018;2023-02-23T12:03:26;120.70;;;44.37;;
23802;SDS011;12082;51.786;6.018;2023-02-23T12:05:57;110.90;;;44.07;;
23802;SDS011;12082;51.786;6.018;2023-02-23T12:10:54;114.97;;;42.47;;
23802;SDS011;12082;51.786;6.018;2023-02-23T12:20:58;104.03;;;40.97;;
23802;SDS011;12082;51.786;6.018;2023-02-23T12:23:28;111.10;;;41.37;;
23802;SDS011;12082;51.786;6.018;2023-02-23T12:26:03;111.50;;;39.80;;
23802;SDS011;12082;51.786;6.018;2023-02-23T12:28:53;112.80;;;38.57;;
23802;SDS011;12082;51.786;6.018;2023-02-23T12:34:09;81.93;;;33.23;;
23802;SDS011;12082;51.786;6.018;2023-02-23T12:36:42;89.60;;;34.13;;
23802;SDS011;12082;51.786;6.018;2023-02-23T12:39:31;81.47;;;33.73;;
23802;SDS011;12082;51.786;6.018;2023-02-23T12:42:03;75.30;;;32.63;;
23802;SDS011;12082;51.786;6.018;2023-02-23T12:44:44;79.37;;;31.23;;
23802;SDS011;12082;51.786;6.018;2023-02-23T12:48:01;69.00;;;30.80;;
23802;SDS011;12082;51.786;6.018;2023-02-23T12:52:54;65.27;;;30.10;;
23802;SDS011;12082;51.786;6.018;2023-02-23T12:55:46;60.87;;;29.53;;
23802;SDS011;12082;51.786;6.018;2023-02-23T13:01:03;51.47;;;27.50;;
23802;SDS011;12082;51.786;6.018;2023-02-23T13:03:43;57.40;;;29.17;;
23802;SDS011;12082;51.786;6.018;2023-02-23T13:06:14;50.77;;;26.97;;
23802;SDS011;12082;51.786;6.018;2023-02-23T13:12:02;53.47;;;26.93;;
23802;SDS011;12082;51.786;6.018;2023-02-23T13:20:22;53.17;;;27.53;;
23802;SDS011;12082;51.786;6.018;2023-02-23T13:25:36;52.33;;;28.93;;
23802;SDS011;12082;51.786;6.018;2023-02-23T13:28:20;51.30;;;27.63;;
23802;SDS011;12082;51.786;6.018;2023-02-23T13:31:02;51.23;;;28.23;;
23802;SDS011;12082;51.786;6.018;2023-02-23T13:33:28;58.57;;;29.13;;
23802;SDS011;12082;51.786;6.018;2023-02-23T13:35:59;49.93;;;28.17;;
23802;SDS011;12082;51.786;6.018;2023-02-23T13:38:34;48.70;;;26.87;;
23802;SDS011;12082;51.786;6.018;2023-02-23T13:44:04;49.30;;;25.77;;
23802;SDS011;12082;51.786;6.018;2023-02-23T13:46:41;47.03;;;25.73;;
23802;SDS011;12082;51.786;6.018;2023-02-23T13:49:41;44.43;;;26.67;;
23802;SDS011;12082;51.786;6.018;2023-02-23T13:52:36;46.90;;;25.50;;
23802;SDS011;12082;51.786;6.018;2023-02-23T13:55:09;46.23;;;27.27;;
23802;SDS011;12082;51.786;6.018;2023-02-23T13:58:05;43.33;;;25.87;;
23802;SDS011;12082;51.786;6.018;2023-02-23T14:00:39;44.07;;;27.10;;
23802;SDS011;12082;51.786;6.018;2023-02-23T14:03:05;42.20;;;24.27;;
23802;SDS011;12082;51.786;6.018;2023-02-23T14:05:42;33.33;;;22.73;;
23802;SDS011;12082;51.786;6.018;2023-02-23T14:08:18;36.83;;;24.30;;
23802;SDS011;12082;51.786;6.018;2023-02-23T14:11:06;30.77;;;22.07;;
23802;SDS011;12082;51.786;6.018;2023-02-23T14:13:32;26.43;;;20.70;;
23802;SDS011;12082;51.786;6.018;2023-02-23T14:16:07;33.30;;;20.40;;
23802;SDS011;12082;51.786;6.018;2023-02-23T14:18:49;29.37;;;20.60;;
23802;SDS011;12082;51.786;6.018;2023-02-23T14:21:29;29.53;;;21.07;;
23802;SDS011;12082;51.786;6.018;2023-02-23T14:24:12;29.10;;;18.67;;
23802;SDS011;12082;51.786;6.018;2023-02-23T14:29:39;25.87;;;18.33;;
23802;SDS011;12082;51.786;6.018;2023-02-23T14:39:52;24.13;;;16.13;;
23802;SDS011;12082;51.786;6.018;2023-02-23T14:42:20;27.37;;;17.80;;
23802;SDS011;12082;51.786;6.018;2023-02-23T14:44:47;24.93;;;17.83;;
23802;SDS011;12082;51.786;6.018;2023-02-23T14:47:19;26.97;;;16.90;;
23802;SDS011;12082;51.786;6.018;2023-02-23T14:49:48;20.17;;;15.50;;
23802;SDS011;12082;51.786;6.018;2023-02-23T14:52:49;21.20;;;16.10;;
23802;SDS011;12082;51.786;6.018;2023-02-23T14:57:44;21.83;;;16.87;;
23802;SDS011;12082;51.786;6.018;2023-02-23T15:02:53;20.23;;;16.63;;
23802;SDS011;12082;51.786;6.018;2023-02-23T15:05:23;22.33;;;16.30;;
23802;SDS011;12082;51.786;6.018;2023-02-23T15:07:52;25.97;;;17.07;;
23802;SDS011;12082;51.786;6.018;2023-02-23T15:10:24;21.97;;;16.83;;
23802;SDS011;12082;51.786;6.018;2023-02-23T15:12:53;20.47;;;16.07;;
23802;SDS011;12082;51.786;6.018;2023-02-23T15:15:20;26.53;;;17.23;;
23802;SDS011;12082;51.786;6.018;2023-02-23T15:17:47;23.87;;;17.07;;
23802;SDS011;12082;51.786;6.018;2023-02-23T15:20:17;20.67;;;16.40;;
23802;SDS011;12082;51.786;6.018;2023-02-23T15:22:47;20.93;;;16.43;;
23802;SDS011;12082;51.786;6.018;2023-02-23T15:25:17;22.33;;;17.10;;
23802;SDS011;12082;51.786;6.018;2023-02-23T15:27:43;23.67;;;17.30;;
23802;SDS011;12082;51.786;6.018;2023-02-23T15:30:17;21.00;;;16.27;;
23802;SDS011;12082;51.786;6.018;2023-02-23T15:32:43;19.43;;;15.80;;
23802;SDS011;12082;51.786;6.018;2023-02-23T15:35:10;21.47;;;16.33;;
23802;SDS011;12082;51.786;6.018;2023-02-23T15:37:40;17.17;;;15.10;;
23802;SDS011;12082;51.786;6.018;2023-02-23T15:40:09;17.70;;;15.80;;
23802;SDS011;12082;51.786;6.018;2023-02-23T15:42:39;19.83;;;15.53;;
23802;SDS011;12082;51.786;6.018;2023-02-23T15:45:13;20.33;;;15.23;;
23802;SDS011;12082;51.786;6.018;2023-02-23T15:47:41;17.40;;;15.30;;
23802;SDS011;12082;51.786;6.018;2023-02-23T15:50:13;18.23;;;16.10;;
23802;SDS011;12082;51.786;6.018;2023-02-23T15:52:43;22.60;;;16.97;;
23802;SDS011;12082;51.786;6.018;2023-02-23T15:55:12;19.77;;;16.07;;
23802;SDS011;12082;51.786;6.018;2023-02-23T15:57:43;21.53;;;17.03;;
23802;SDS011;12082;51.786;6.018;2023-02-23T16:00:24;21.10;;;16.63;;
23802;SDS011;12082;51.786;6.018;2023-02-23T16:02:56;19.73;;;16.33;;
23802;SDS011;12082;51.786;6.018;2023-02-23T16:05:22;18.77;;;16.77;;
23802;SDS011;12082;51.786;6.018;2023-02-23T16:08:00;21.10;;;18.23;;
23802;SDS011;12082;51.786;6.018;2023-02-23T16:10:30;21.13;;;19.07;;
23802;SDS011;12082;51.786;6.018;2023-02-23T16:13:03;20.77;;;17.37;;
23802;SDS011;12082;51.786;6.018;2023-02-23T16:15:32;21.07;;;18.47;;
23802;SDS011;12082;51.786;6.018;2023-02-23T16:18:01;20.33;;;17.90;;
23802;SDS011;12082;51.786;6.018;2023-02-23T16:20:32;20.37;;;18.37;;
23802;SDS011;12082;51.786;6.018;2023-02-23T16:22:59;20.57;;;18.07;;
23802;SDS011;12082;51.786;6.018;2023-02-23T16:25:27;24.60;;;18.73;;
23802;SDS011;12082;51.786;6.018;2023-02-23T16:27:55;22.13;;;19.77;;
23802;SDS011;12082;51.786;6.018;2023-02-23T16:33:08;21.13;;;18.47;;